Time;durP1;ratioP1;P1;durP2;ratioP2;P2;SDS_P1;SDS_P2;PMS_P1;PMS_P2;Temp;Humidity;BMP_temperature;BMP_pressure;BME280_temperature;BME280_humidity;BME280_pressure;Samples;Min_cycle;Max_cycle;Signal;HPM_P1;HPM_P2
2021/11/25 00:00:55;;;;;;;6.10;3.45;;;1.10;99.90;;;-0.71;100.00;101044.84;2570195;30;138237;-38
2021/11/25 00:03:37;;;;;;;6.25;3.58;;;1.20;99.90;;;-0.65;100.00;101043.47;2572657;30;138243;-38
2021/11/25 00:06:18;;;;;;;6.88;3.28;;;1.30;99.90;;;-0.60;100.00;101039.41;2571363;30;138199;-38
2021/11/25 00:09:00;;;;;;;5.93;3.53;;;1.30;99.90;;;-0.54;100.00;101031.81;2571881;30;138328;-38
2021/11/25 00:11:41;;;;;;;6.15;3.50;;;1.40;99.90;;;-0.44;100.00;101033.56;2570385;30;138574;-39
2021/11/25 00:14:23;;;;;;;7.68;4.10;;;1.40;99.90;;;-0.36;100.00;101034.72;2570506;30;137426;-38
2021/11/25 00:17:05;;;;;;;7.90;3.88;;;1.50;99.90;;;-0.30;100.00;101021.63;2570792;30;138213;-38
2021/11/25 00:19:46;;;;;;;6.45;4.00;;;1.60;99.90;;;-0.25;100.00;101021.22;2567873;30;138223;-38
2021/11/25 00:22:27;;;;;;;6.93;4.45;;;1.60;99.90;;;-0.18;100.00;101025.03;2569530;30;138264;-38
2021/11/25 00:25:10;;;;;;;7.32;4.05;;;1.70;99.90;;;-0.08;100.00;101018.84;2570206;30;137280;-38
2021/11/25 00:27:52;;;;;;;6.85;3.97;;;1.80;99.90;;;-0.04;100.00;101014.88;2569171;30;137916;-38
2021/11/25 00:30:34;;;;;;;7.20;3.95;;;1.80;99.90;;;0.00;100.00;101002.91;2571801;30;137738;-38
2021/11/25 00:33:15;;;;;;;8.60;4.43;;;1.90;99.90;;;0.03;100.00;101010.69;2570240;30;138284;-39
2021/11/25 00:35:57;;;;;;;6.85;4.20;;;1.90;99.90;;;0.06;100.00;101001.50;2569965;30;137496;-38
2021/11/25 00:38:39;;;;;;;7.25;4.07;;;1.90;99.90;;;0.12;100.00;101000.94;2570577;30;138349;-39
2021/11/25 00:41:20;;;;;;;7.53;4.68;;;2.00;99.90;;;0.14;100.00;100991.75;2568125;30;137086;-38
2021/11/25 00:44:02;;;;;;;5.78;4.00;;;2.00;99.90;;;0.22;100.00;100988.38;2571488;30;138092;-39
2021/11/25 00:46:43;;;;;;;8.45;4.68;;;2.10;99.90;;;0.23;100.00;100973.13;2567726;30;136754;-39
2021/11/25 00:49:25;;;;;;;7.15;4.50;;;2.10;99.90;;;0.31;100.00;100980.47;2570733;30;138291;-38
2021/11/25 00:52:06;;;;;;;5.95;4.10;;;2.20;99.90;;;0.35;100.00;100979.19;2568265;30;137088;-38
2021/11/25 00:54:48;;;;;;;7.60;4.68;;;2.20;99.90;;;0.38;100.00;100971.72;2570197;30;138764;-39
2021/11/25 00:57:29;;;;;;;8.23;4.80;;;2.20;99.90;;;0.45;100.00;100976.50;2568665;30;138185;-39
2021/11/25 01:00:17;;;;;;;8.38;4.78;;;2.30;99.90;;;0.50;100.00;100972.41;2569056;30;138139;-43
2021/11/25 01:02:58;;;;;;;6.72;3.80;;;2.30;99.90;;;0.53;100.00;100971.25;2570389;30;137182;-38
2021/11/25 01:05:40;;;;;;;8.43;4.63;;;2.40;99.90;;;0.55;100.00;100966.63;2569576;30;137606;-38
2021/11/25 01:08:22;;;;;;;7.28;4.35;;;2.40;99.90;;;0.57;100.00;100952.03;2570600;30;137708;-39
2021/11/25 01:11:05;;;;;;;7.47;4.13;;;2.40;99.90;;;0.63;100.00;100955.16;2570268;30;138448;-39
2021/11/25 01:13:48;;;;;;;7.38;4.32;;;2.40;99.90;;;0.69;100.00;100960.78;2569017;30;138115;-39
2021/11/25 01:16:29;;;;;;;8.98;4.75;;;2.50;99.90;;;0.71;100.00;100961.50;2571213;30;138120;-38
2021/11/25 01:19:11;;;;;;;8.20;4.60;;;2.50;99.90;;;0.73;100.00;100960.50;2569500;30;136914;-39
2021/11/25 01:21:53;;;;;;;7.72;4.65;;;2.60;99.90;;;0.74;100.00;100959.50;2570117;30;138092;-39
2021/11/25 01:24:34;;;;;;;6.57;4.53;;;2.60;99.90;;;0.77;100.00;100961.91;2569844;30;138211;-39
2021/11/25 01:27:16;;;;;;;7.93;4.80;;;2.60;99.90;;;0.77;100.00;100953.84;2572053;30;138197;-39
2021/11/25 01:29:58;;;;;;;6.93;4.60;;;2.60;99.90;;;0.79;100.00;100958.09;2569134;30;136926;-39
2021/11/25 01:32:40;;;;;;;9.35;5.18;;;2.60;99.90;;;0.79;100.00;100959.91;2570136;30;139532;-38
2021/11/25 01:35:23;;;;;;;12.02;5.25;;;2.60;99.90;;;0.82;100.00;100965.03;2567786;30;136947;-38
2021/11/25 01:38:08;;;;;;;8.20;5.05;;;2.70;99.90;;;0.85;100.00;100967.41;2569037;30;138556;-47
2021/11/25 01:40:51;;;;;;;8.63;5.13;;;2.70;99.90;;;0.89;100.00;100967.94;2570225;30;137409;-38
2021/11/25 01:43:37;;;;;;;8.23;5.25;;;2.70;99.90;;;0.89;100.00;100960.75;2570625;30;137787;-38
2021/11/25 01:46:22;;;;;;;7.70;4.82;;;2.70;99.90;;;0.90;100.00;100954.38;2568697;30;137499;-39
2021/11/25 01:49:04;;;;;;;8.55;5.10;;;2.70;99.90;;;0.91;100.00;100956.09;2567063;30;138194;-39
2021/11/25 01:51:45;;;;;;;7.93;4.70;;;2.80;99.90;;;0.94;100.00;100961.16;2570348;30;136894;-38
2021/11/25 01:54:26;;;;;;;7.40;4.78;;;2.80;99.90;;;1.00;100.00;100957.88;2570574;30;139183;-38
2021/11/25 01:57:08;;;;;;;8.32;5.28;;;2.80;99.90;;;1.02;100.00;100949.69;2569041;30;136965;-38
2021/11/25 01:59:50;;;;;;;9.38;6.22;;;2.80;99.90;;;1.03;100.00;100939.75;2569337;30;138441;-39
2021/11/25 02:02:38;;;;;;;8.02;4.68;;;2.90;99.90;;;1.08;100.00;100935.66;2568497;30;137128;-38
2021/11/25 02:05:21;;;;;;;9.52;5.60;;;2.90;99.90;;;1.11;100.00;100938.03;2567763;30;138299;-38
2021/11/25 02:08:05;;;;;;;10.02;5.13;;;2.90;99.90;;;1.11;100.00;100937.22;2570932;30;137903;-38
2021/11/25 02:10:50;;;;;;;9.80;5.45;;;2.90;99.90;;;1.16;100.00;100937.59;2571296;30;137264;-38
2021/11/25 02:13:32;;;;;;;10.00;5.80;;;3.00;99.90;;;1.07;100.00;100925.06;2570546;30;137285;-38
2021/11/25 02:16:13;;;;;;;11.00;5.32;;;3.00;99.90;;;1.19;100.00;100925.69;2572562;30;139177;-39
2021/11/25 02:18:59;;;;;;;9.50;5.60;;;3.00;99.90;;;1.20;100.00;100932.78;2568311;30;137447;-39
2021/11/25 02:21:40;;;;;;;9.20;5.95;;;3.00;99.90;;;1.20;100.00;100922.88;2568909;30;138725;-38
2021/11/25 02:24:22;;;;;;;8.88;5.80;;;3.00;99.90;;;1.20;100.00;100917.50;2570174;30;137403;-38
2021/11/25 02:27:04;;;;;;;9.45;6.05;;;3.00;99.90;;;1.22;100.00;100920.06;2567253;30;139363;-39
2021/11/25 02:29:47;;;;;;;8.88;5.63;;;3.00;99.90;;;1.22;100.00;100918.19;2571183;30;137362;-39
2021/11/25 02:32:36;;;;;;;9.65;6.07;;;3.10;99.90;;;1.26;100.00;100916.91;2570504;30;137460;-38
2021/11/25 02:35:25;;;;;;;11.37;5.57;;;3.10;99.90;;;1.29;100.00;100910.38;2569101;30;137625;-39
2021/11/25 02:38:08;;;;;;;9.88;6.13;;;3.10;99.90;;;1.25;100.00;100906.31;2567414;30;137756;-38
2021/11/25 02:40:55;;;;;;;8.98;5.90;;;3.10;99.90;;;1.34;100.00;100913.47;2569105;30;138073;-38
2021/11/25 02:43:37;;;;;;;9.20;5.68;;;3.20;99.90;;;1.38;100.00;100906.78;2570754;30;138730;-39
2021/11/25 02:46:19;;;;;;;9.68;5.43;;;3.20;99.90;;;1.38;100.00;100917.53;2569420;30;137287;-39
2021/11/25 02:49:02;;;;;;;8.70;5.20;;;3.20;99.90;;;1.37;100.00;100918.53;2570033;30;137353;-39
2021/11/25 02:51:43;;;;;;;7.88;5.28;;;3.20;99.90;;;1.39;100.00;100918.41;2571393;30;137568;-38
2021/11/25 02:54:25;;;;;;;8.55;5.10;;;3.20;99.90;;;1.39;100.00;100921.09;2567416;30;138466;-39
2021/11/25 02:57:06;;;;;;;8.00;4.90;;;3.20;99.90;;;1.40;100.00;100918.25;2568298;30;136820;-39
2021/11/25 02:59:47;;;;;;;8.68;5.55;;;3.20;99.90;;;1.41;100.00;100919.09;2571304;30;138266;-40
2021/11/25 03:02:29;;;;;;;9.60;5.50;;;3.20;99.90;;;1.42;100.00;100910.03;2567341;30;138269;-41
2021/11/25 03:05:11;;;;;;;9.30;5.45;;;3.20;99.90;;;1.38;100.00;100914.84;2568937;30;138269;-40
2021/11/25 03:07:53;;;;;;;8.75;5.43;;;3.20;99.90;;;1.35;100.00;100911.66;2568677;30;137200;-40
2021/11/25 03:10:46;;;;;;;11.07;6.00;;;3.20;99.90;;;1.36;100.00;100916.03;2569112;30;138712;-40
2021/11/25 03:13:30;;;;;;;9.75;5.47;;;3.20;99.90;;;1.34;100.00;100900.03;2567711;30;137337;-40
2021/11/25 03:16:15;;;;;;;8.85;5.45;;;3.20;99.90;;;1.32;100.00;100895.78;2567039;30;138406;-40
2021/11/25 03:18:57;;;;;;;9.10;5.07;;;3.20;99.90;;;1.28;100.00;100892.56;2566797;30;137393;-40
2021/11/25 03:21:39;;;;;;;8.65;5.55;;;3.20;99.90;;;1.25;100.00;100890.19;2567660;30;139094;-40
2021/11/25 03:24:21;;;;;;;9.10;5.32;;;3.10;99.90;;;1.18;100.00;100875.63;2567469;30;137754;-40
2021/11/25 03:27:02;;;;;;;8.13;4.60;;;3.10;99.90;;;1.09;100.00;100866.66;2568004;30;138127;-40
2021/11/25 03:29:44;;;;;;;8.32;5.00;;;3.00;99.90;;;0.99;100.00;100874.75;2566456;30;137146;-40
2021/11/25 03:32:25;;;;;;;8.45;4.72;;;2.90;99.90;;;0.86;100.00;100865.16;2569182;30;139163;-40
2021/11/25 03:35:07;;;;;;;9.40;5.32;;;2.80;99.90;;;0.70;100.00;100859.59;2568108;30;138037;-40
2021/11/25 03:37:49;;;;;;;8.95;5.40;;;2.70;99.90;;;0.63;100.00;100866.53;2568288;30;137803;-40
2021/11/25 03:40:31;;;;;;;7.82;5.55;;;2.60;99.90;;;0.49;100.00;100862.47;2568552;30;137565;-40
2021/11/25 03:43:14;;;;;;;8.82;5.47;;;2.50;99.90;;;0.45;100.00;100877.16;2567677;30;138324;-40
2021/11/25 03:45:56;;;;;;;9.43;5.78;;;2.40;99.90;;;0.35;100.00;100872.69;2568054;30;138273;-40
2021/11/25 03:48:38;;;;;;;9.00;5.25;;;2.30;99.90;;;0.26;100.00;100876.22;2567086;30;137455;-40
2021/11/25 03:51:20;;;;;;;8.63;5.30;;;2.20;99.90;;;0.20;100.00;100866.06;2567274;30;137580;-40
2021/11/25 03:54:02;;;;;;;7.68;4.80;;;2.20;99.90;;;0.11;100.00;100857.88;2568874;30;139108;-40
2021/11/25 03:56:43;;;;;;;7.45;5.20;;;2.10;99.90;;;0.02;100.00;100853.38;2568304;30;137329;-40
2021/11/25 03:59:25;;;;;;;8.95;5.28;;;2.00;99.90;;;-0.07;100.00;100847.03;2568770;30;138484;-40
2021/11/25 04:02:06;;;;;;;8.15;5.28;;;1.90;99.90;;;-0.13;100.00;100844.94;2568322;30;138164;-40
2021/11/25 04:04:48;;;;;;;9.45;5.55;;;1.90;99.90;;;-0.17;100.00;100840.81;2568603;30;138505;-40
2021/11/25 04:07:29;;;;;;;8.27;4.63;;;1.80;99.90;;;-0.23;100.00;100844.06;2568254;30;137014;-40
2021/11/25 04:10:13;;;;;;;8.40;5.07;;;1.70;99.90;;;-0.25;100.00;100852.25;2567378;30;138463;-40
2021/11/25 04:12:54;;;;;;;9.63;5.47;;;1.70;99.90;;;-0.26;100.00;100844.34;2567978;30;137490;-40
2021/11/25 04:15:36;;;;;;;8.73;5.05;;;1.70;99.90;;;-0.27;100.00;100840.81;2566780;30;139054;-40
2021/11/25 04:18:17;;;;;;;7.60;5.03;;;1.70;99.90;;;-0.25;100.00;100848.72;2568746;30;138241;-40
2021/11/25 04:20:59;;;;;;;8.93;5.53;;;1.70;99.90;;;-0.22;100.00;100851.13;2569239;30;139015;-40
2021/11/25 04:23:41;;;;;;;8.65;5.30;;;1.70;99.90;;;-0.18;100.00;100837.28;2568158;30;136956;-40
2021/11/25 04:26:22;;;;;;;9.02;4.95;;;1.70;99.90;;;-0.11;100.00;100848.31;2568434;30;136737;-40
2021/11/25 04:29:04;;;;;;;8.57;5.18;;;1.70;99.90;;;-0.03;100.00;100850.25;2568599;30;138085;-40
2021/11/25 04:37:46;;;;;;;8.88;5.38;;;1.90;99.90;;;0.08;100.00;100842.06;2568063;30;137811;-40
2021/11/25 04:40:33;;;;;;;10.35;5.32;;;2.00;99.90;;;0.07;100.00;100837.69;2565387;30;138217;-40
2021/11/25 04:43:17;;;;;;;9.10;5.43;;;2.00;99.90;;;0.07;100.00;100840.38;2569035;30;137499;-40
2021/11/25 04:45:59;;;;;;;9.20;5.60;;;2.00;99.90;;;0.04;100.00;100832.63;2567741;30;138234;-40
2021/11/25 04:48:40;;;;;;;8.48;5.20;;;1.90;99.90;;;0.02;100.00;100829.25;2568235;30;137057;-40
2021/11/25 04:51:22;;;;;;;8.90;5.90;;;1.90;99.90;;;0.04;100.00;100821.03;2566016;30;137148;-40
2021/11/25 04:54:04;;;;;;;10.02;6.32;;;1.90;99.90;;;0.03;100.00;100817.53;2568497;30;139409;-40
2021/11/25 04:56:45;;;;;;;8.75;5.72;;;2.00;99.90;;;0.10;100.00;100829.38;2568512;30;137512;-40
2021/11/25 04:59:27;;;;;;;10.07;5.72;;;2.00;99.90;;;0.16;100.00;100833.31;2568512;30;137768;-40
2021/11/25 05:02:08;;;;;;;9.93;5.97;;;2.00;99.90;;;0.15;100.00;100820.88;2566036;30;137394;-40
2021/11/25 05:04:50;;;;;;;8.45;5.68;;;2.00;99.90;;;0.09;100.00;100813.41;2567757;30;138447;-40
2021/11/25 05:07:32;;;;;;;8.65;5.43;;;2.00;99.90;;;0.01;100.00;100819.50;2567032;30;137324;-40
2021/11/25 05:10:13;;;;;;;9.23;5.72;;;2.00;99.90;;;-0.07;100.00;100817.53;2567686;30;138360;-40
2021/11/25 05:12:55;;;;;;;8.85;5.35;;;1.90;99.90;;;-0.15;100.00;100812.88;2568704;30;136894;-40
2021/11/25 05:15:37;;;;;;;8.95;5.40;;;1.80;99.90;;;-0.25;100.00;100814.72;2566665;30;137423;-40
2021/11/25 05:18:18;;;;;;;9.82;5.85;;;1.80;99.90;;;-0.34;100.00;100823.59;2568128;30;137429;-40
2021/11/25 05:21:00;;;;;;;10.40;6.65;;;1.70;99.90;;;-0.41;100.00;100825.16;2568720;30;137303;-40
2021/11/25 05:23:41;;;;;;;11.07;6.78;;;1.60;99.90;;;-0.46;100.00;100823.75;2568564;30;137602;-40
2021/11/25 05:26:22;;;;;;;11.43;6.80;;;1.60;99.90;;;-0.51;100.00;100823.31;2566826;30;138897;-40
2021/11/25 05:29:04;;;;;;;13.85;7.35;;;1.50;99.90;;;-0.57;100.00;100834.59;2566885;30;137416;-40
2021/11/25 05:31:45;;;;;;;11.18;6.65;;;1.40;99.90;;;-0.65;100.00;100829.09;2565234;30;139052;-40
2021/11/25 05:34:27;;;;;;;10.60;7.05;;;1.40;99.90;;;-0.69;100.00;100828.50;2567731;30;137133;-40
2021/11/25 05:37:08;;;;;;;10.63;6.25;;;1.30;99.90;;;-0.73;100.00;100830.63;2568007;30;138318;-40
2021/11/25 05:39:50;;;;;;;12.10;7.38;;;1.30;99.90;;;-0.80;100.00;100840.19;2568547;30;137031;-40
2021/11/25 05:42:32;;;;;;;10.98;6.75;;;1.20;99.90;;;-0.86;100.00;100838.06;2565350;30;137389;-40
2021/11/25 05:45:18;;;;;;;12.20;6.75;;;1.20;99.90;;;-0.95;100.00;100823.66;2565986;30;137497;-40
2021/11/25 05:48:00;;;;;;;11.07;7.10;;;1.10;99.90;;;-1.00;100.00;100825.91;2566255;30;138271;-40
2021/11/25 05:50:41;;;;;;;11.45;7.15;;;1.00;99.90;;;-1.04;100.00;100827.16;2568446;30;137504;-40
2021/11/25 05:53:23;;;;;;;10.65;6.60;;;1.00;99.90;;;-1.13;100.00;100828.81;2566398;30;138172;-40
2021/11/25 05:56:04;;;;;;;9.93;6.40;;;0.90;99.90;;;-1.21;100.00;100818.78;2567789;30;137521;-40
2021/11/25 05:58:46;;;;;;;10.45;7.35;;;0.80;99.90;;;-1.23;100.00;100815.38;2568301;30;139040;-40
2021/11/25 06:01:27;;;;;;;11.20;7.03;;;0.80;99.90;;;-1.29;100.00;100799.88;2567541;30;137373;-40
2021/11/25 06:04:08;;;;;;;11.48;6.90;;;0.70;99.90;;;-1.35;100.00;100805.78;2568370;30;137198;-40
2021/11/25 06:06:50;;;;;;;11.57;6.90;;;0.70;99.90;;;-1.42;100.00;100802.78;2568052;30;137038;-40
2021/11/25 06:09:31;;;;;;;15.38;8.95;;;0.60;99.90;;;-1.32;100.00;100801.00;2566297;30;137256;-40
2021/11/25 06:12:13;;;;;;;12.32;7.25;;;0.70;99.90;;;-1.32;100.00;100795.66;2568165;30;136973;-40
2021/11/25 06:14:54;;;;;;;12.95;8.20;;;0.70;99.90;;;-1.37;100.00;100797.03;2566962;30;138234;-40
2021/11/25 06:17:36;;;;;;;15.52;8.27;;;0.60;99.90;;;-1.43;100.00;100793.06;2565536;38;137473;-40
2021/11/25 06:20:20;;;;;;;14.48;8.43;;;0.60;99.90;;;-1.41;100.00;100798.28;2568016;30;138220;-40
2021/11/25 06:23:01;;;;;;;13.23;8.20;;;0.60;99.90;;;-1.43;100.00;100792.22;2567165;30;136966;-40
2021/11/25 06:25:46;;;;;;;11.35;7.13;;;0.60;99.90;;;-1.49;100.00;100781.06;2567213;30;139247;-40
2021/11/25 06:28:27;;;;;;;14.75;7.80;;;0.60;99.90;;;-1.55;100.00;100778.09;2566004;30;138044;-40
2021/11/25 06:31:09;;;;;;;16.83;9.10;;;0.50;99.90;;;-1.60;100.00;100770.47;2566854;30;138417;-40
2021/11/25 06:33:50;;;;;;;13.15;7.95;;;0.50;99.90;;;-1.66;100.00;100771.84;2568166;30;137506;-40
2021/11/25 06:36:32;;;;;;;16.17;8.90;;;0.40;99.90;;;-1.64;100.00;100763.69;2567071;30;138677;-40
2021/11/25 06:39:14;;;;;;;13.02;8.50;;;0.40;99.90;;;-1.60;100.00;100773.97;2566777;30;136780;-40
2021/11/25 06:41:56;;;;;;;15.07;8.85;;;0.40;99.90;;;-1.52;100.00;100778.66;2567261;30;138226;-39
2021/11/25 06:44:38;;;;;;;15.70;9.13;;;0.50;99.90;;;-1.50;100.00;100789.25;2567584;30;137789;-40
2021/11/25 06:47:19;;;;;;;21.95;11.07;;;0.50;99.90;;;-1.45;100.00;100800.38;2565335;30;137830;-40
2021/11/25 06:50:01;;;;;;;18.58;10.93;;;0.50;99.90;;;-1.39;100.00;100810.53;2568727;30;137547;-40
2021/11/25 06:52:42;;;;;;;16.23;10.05;;;0.60;99.90;;;-1.43;100.00;100824.34;2567280;30;138183;-40
2021/11/25 06:55:24;;;;;;;16.50;9.18;;;0.60;99.90;;;-1.51;100.00;100827.69;2567435;30;137297;-40
2021/11/25 06:58:05;;;;;;;13.93;8.73;;;0.50;99.90;;;-1.61;100.00;100827.63;2566865;30;139260;-40
2021/11/25 07:00:48;;;;;;;12.95;8.18;;;0.50;99.90;;;-1.70;100.00;100820.41;2565861;30;138705;-40
2021/11/25 07:03:31;;;;;;;15.65;8.90;;;0.40;99.90;;;-1.77;100.00;100822.75;2566887;30;138284;-40
2021/11/25 07:06:05;;;;;;;15.73;9.30;;;0.30;99.90;;;-1.81;100.00;100821.34;2567520;30;137676;-40
2021/11/25 07:08:32;;;;;;;15.90;9.88;;;0.20;99.90;;;-1.84;100.00;100829.63;2567210;30;139095;-40
2021/11/25 07:11:00;;;;;;;18.75;10.40;;;0.20;99.90;;;-1.90;100.00;100834.50;2567697;30;136735;-39
2021/11/25 07:13:28;;;;;;;17.02;9.88;;;0.20;99.90;;;-1.92;100.00;100836.47;2567578;30;138394;-40
2021/11/25 07:15:56;;;;;;;18.13;10.27;;;0.10;99.90;;;-1.95;100.00;100834.03;2568007;30;136891;-40
2021/11/25 07:18:23;;;;;;;18.48;10.02;;;0.10;99.90;;;-1.98;100.00;100839.66;2566779;30;138545;-40
2021/11/25 07:20:51;;;;;;;20.17;10.57;;;0.10;99.90;;;-2.00;100.00;100838.94;2568002;30;138229;-40
2021/11/25 07:23:19;;;;;;;17.48;10.75;;;0.00;99.90;;;-2.00;100.00;100846.97;2567943;30;138256;-40
2021/11/25 07:25:47;;;;;;;21.20;11.13;;;0.00;99.90;;;-2.01;100.00;100847.94;2568534;30;136767;-40
2021/11/25 07:28:14;;;;;;;20.52;10.93;;;0.00;99.90;;;-2.00;100.00;100854.97;2566453;30;139673;-40
2021/11/25 07:30:42;;;;;;;19.73;11.57;;;0.00;99.90;;;-2.04;100.00;100849.03;2566614;30;137717;-40
2021/11/25 07:33:09;;;;;;;20.58;11.48;;;0.00;99.90;;;-1.97;100.00;100859.25;2566280;30;139028;-40
2021/11/25 07:35:43;;;;;;;25.38;13.55;;;0.00;99.90;;;-1.97;100.00;100861.91;2567720;30;136878;-40
2021/11/25 07:38:11;;;;;;;23.02;12.07;;;0.00;99.90;;;-1.93;100.00;100866.03;2566301;30;138377;-40
2021/11/25 07:40:39;;;;;;;19.83;10.77;;;0.10;99.90;;;-1.91;100.00;100872.91;2568462;30;137292;-40
2021/11/25 07:43:07;;;;;;;22.55;10.70;;;0.10;99.90;;;-1.90;100.00;100866.59;2566713;30;138390;-40
2021/11/25 07:45:34;;;;;;;20.38;11.15;;;0.10;99.90;;;-1.90;100.00;100868.44;2567556;30;137594;-40
2021/11/25 07:48:03;;;;;;;18.45;11.00;;;0.10;99.90;;;-1.91;100.00;100864.91;2565245;30;138140;-39
2021/11/25 07:50:31;;;;;;;17.85;10.18;;;0.10;99.90;;;-1.90;100.00;100855.06;2567047;30;137408;-40
2021/11/25 07:52:59;;;;;;;17.40;10.30;;;0.10;99.90;;;-1.89;100.00;100859.44;2567430;30;139097;-40
2021/11/25 07:55:27;;;;;;;16.80;10.10;;;0.10;99.90;;;-1.86;100.00;100856.50;2567589;30;137501;-40
2021/11/25 07:57:56;;;;;;;19.55;11.13;;;0.10;99.90;;;-1.82;100.00;100849.06;2565877;30;139239;-40
2021/11/25 08:00:27;;;;;;;17.92;10.40;;;0.10;99.90;;;-1.80;100.00;100845.25;2566327;30;138496;-40
2021/11/25 08:02:57;;;;;;;19.20;10.32;;;0.20;99.90;;;-1.73;100.00;100850.94;2568396;30;138826;-40
2021/11/25 08:05:28;;;;;;;17.63;10.90;;;0.20;99.90;;;-1.67;100.00;100849.56;2567314;30;138337;-40
2021/11/25 08:07:58;;;;;;;20.65;11.43;;;0.30;99.90;;;-1.58;100.00;100843.41;2567612;30;138365;-39
2021/11/25 08:10:28;;;;;;;20.27;11.63;;;0.30;99.90;;;-1.46;100.00;100841.50;2567384;30;137834;-39
2021/11/25 08:13:03;;;;;;;18.75;11.02;;;0.40;99.90;;;-1.40;100.00;100832.94;2567942;30;139393;-40
2021/11/25 08:15:34;;;;;;;21.20;11.25;;;0.50;99.90;;;-1.37;100.00;100838.03;2565356;30;137824;-40
2021/11/25 08:18:03;;;;;;;20.77;11.27;;;0.50;99.90;;;-1.39;100.00;100831.97;2568537;30;137300;-40
2021/11/25 08:20:31;;;;;;;20.55;11.00;;;0.50;99.90;;;-1.33;100.00;100844.84;2568669;30;139135;-40
2021/11/25 08:22:59;;;;;;;19.98;11.30;;;0.60;99.90;;;-1.27;100.00;100845.28;2567714;30;138588;-40
2021/11/25 08:25:29;;;;;;;21.42;11.57;;;0.60;99.90;;;-1.19;100.00;100848.97;2568185;30;136843;-40
2021/11/25 08:28:00;;;;;;;21.52;11.25;;;0.70;99.90;;;-1.10;100.00;100836.56;2567998;30;138344;-40
2021/11/25 08:30:30;;;;;;;19.77;11.63;;;0.70;99.90;;;-0.96;100.00;100839.88;2568227;30;137921;-40
2021/11/25 08:32:58;;;;;;;22.13;12.63;;;0.80;99.90;;;-0.84;100.00;100825.38;2567969;30;137526;-40
2021/11/25 08:35:27;;;;;;;22.67;13.60;;;0.90;99.90;;;-0.69;100.00;100816.94;2568419;30;137384;-39
2021/11/25 08:37:56;;;;;;;27.00;13.57;;;1.00;99.90;;;-0.53;100.00;100808.34;2567922;30;138327;-40
2021/11/25 08:40:23;;;;;;;24.10;13.63;;;1.20;99.90;;;-0.37;100.00;100792.56;2566394;30;136951;-40
2021/11/25 08:42:51;;;;;;;27.90;15.55;;;1.30;99.90;;;-0.20;100.00;100800.88;2567817;30;138156;-40
2021/11/25 08:45:20;;;;;;;28.23;15.40;;;1.40;99.90;;;-0.04;100.00;100793.09;2566574;30;137815;-40
2021/11/25 08:47:48;;;;;;;28.98;16.80;;;1.60;99.90;;;0.10;100.00;100790.94;2567764;30;137489;-40
2021/11/25 08:50:18;;;;;;;;;;;1.70;99.90;;;0.22;100.00;100783.56;2568226;30;138249;-40
2021/11/25 08:52:45;;;;;;;28.52;14.63;;;1.90;99.90;;;0.33;100.00;100786.09;2566239;30;136742;-40
2021/11/25 08:55:14;;;;;;;31.40;17.10;;;2.00;99.90;;;0.36;100.00;100775.06;2568660;30;138277;-40
2021/11/25 08:57:42;;;;;;;29.15;17.17;;;2.10;99.90;;;0.51;100.00;100785.31;2569358;30;139388;-40
2021/11/25 09:00:12;;;;;;;32.35;17.67;;;2.20;99.90;;;0.51;100.00;100782.63;2573583;30;137903;-41
2021/11/25 09:02:40;;;;;;;33.03;19.15;;;2.30;99.90;;;0.67;100.00;100796.28;2570779;30;138969;-38
2021/11/25 09:05:11;;;;;;;33.65;19.15;;;2.40;99.90;;;0.76;100.00;100791.00;2569842;30;137557;-38
2021/11/25 09:07:39;;;;;;;33.47;19.00;;;2.40;99.90;;;0.87;100.00;100801.56;2572265;30;138284;-38
2021/11/25 09:10:09;;;;;;;37.08;20.85;;;2.50;99.90;;;0.98;100.00;100803.19;2567834;30;138525;-38
2021/11/25 09:12:37;;;;;;;35.50;20.30;;;2.60;99.90;;;1.01;100.00;100792.16;2570390;30;137991;-39
2021/11/25 09:15:14;;;;;;;35.40;20.08;;;2.70;99.90;;;1.15;100.00;100796.16;2570164;30;137512;-38
2021/11/25 09:17:42;;;;;;;37.80;21.00;;;2.80;99.90;;;1.23;100.00;100798.94;2571154;30;139005;-38
2021/11/25 09:20:31;;;;;;;35.72;21.00;;;2.90;99.90;;;1.32;100.00;100804.38;2572155;30;136678;-38
2021/11/25 09:23:14;;;;;;;40.05;22.17;;;3.00;99.90;;;1.39;100.00;100811.69;2569947;30;139060;-38
2021/11/25 09:25:43;;;;;;;42.22;23.17;;;3.00;99.90;;;1.46;100.00;100801.19;2570144;30;137635;-38
2021/11/25 09:28:19;;;;;;;39.03;23.75;;;3.10;99.90;;;1.54;100.00;100805.78;2571276;30;136963;-38
2021/11/25 09:30:48;;;;;;;40.60;24.20;;;3.20;99.90;;;1.56;100.00;100815.38;2569526;30;138306;-38
2021/11/25 09:33:17;;;;;;;40.75;22.50;;;3.20;99.90;;;1.58;100.00;100812.56;2570081;30;138969;-38
2021/11/25 09:35:45;;;;;;;42.05;23.45;;;3.30;99.90;;;1.69;100.00;100819.53;2569319;30;138115;-38
2021/11/25 09:38:16;;;;;;;42.78;24.83;;;3.40;99.90;;;1.77;100.00;100822.31;2570187;30;137805;-38
2021/11/25 09:40:46;;;;;;;41.85;24.10;;;3.40;99.90;;;1.80;100.00;100818.47;2570396;30;137797;-39
2021/11/25 09:43:21;;;;;;;38.90;23.95;;;3.50;99.90;;;1.82;100.00;100830.75;2569834;30;137797;-38
2021/11/25 09:45:50;;;;;;;42.22;23.40;;;3.50;99.90;;;1.82;100.00;100836.13;2569381;30;137627;-38
2021/11/25 09:48:22;;;;;;;40.50;24.00;;;3.50;99.90;;;1.84;100.00;100847.56;2571281;30;137555;-38
2021/11/25 09:50:53;;;;;;;38.22;22.13;;;3.60;99.90;;;1.89;100.00;100840.91;2569517;30;137491;-38
2021/11/25 09:53:25;;;;;;;45.22;24.50;;;3.60;99.90;;;1.92;100.00;100838.75;2570148;30;138383;-38
2021/11/25 09:55:56;;;;;;;40.58;23.27;;;3.60;99.90;;;1.93;100.00;100840.44;2570528;30;137579;-38
2021/11/25 09:58:27;;;;;;;38.60;21.75;;;3.60;99.90;;;1.95;100.00;100851.88;2568709;30;138877;-38
2021/11/25 10:01:04;;;;;;;40.55;23.20;;;3.70;99.90;;;1.96;100.00;100842.81;2568806;30;136906;-38
2021/11/25 10:03:35;;;;;;;39.20;22.50;;;3.70;99.90;;;1.98;100.00;100840.81;2571700;30;139293;-38
2021/11/25 10:06:04;;;;;;;38.50;22.70;;;3.70;99.90;;;2.01;100.00;100839.66;2570757;30;136943;-38
2021/11/25 10:08:48;;;;;;;37.15;22.08;;;3.70;99.90;;;2.04;100.00;100828.56;2569200;30;138688;-38
2021/11/25 10:11:23;;;;;;;39.75;22.23;;;3.70;99.90;;;2.06;100.00;100831.94;2571808;30;136804;-38
2021/11/25 10:13:55;;;;;;;40.60;21.45;;;3.80;99.90;;;2.09;100.00;100833.50;2566517;30;138510;-38
2021/11/25 10:16:35;;;;;;;38.17;22.58;;;3.80;99.90;;;2.14;100.00;100829.34;2568448;30;137831;-38
2021/11/25 10:19:19;;;;;;;35.50;21.77;;;3.80;99.90;;;2.20;100.00;100821.63;2569924;30;138249;-38
2021/11/25 10:21:56;;;;;;;40.60;22.45;;;3.90;99.90;;;2.22;100.00;100820.47;2568634;30;137089;-38
2021/11/25 10:24:31;;;;;;;37.95;21.77;;;3.90;99.90;;;2.31;100.00;100807.91;2569310;30;138190;-39
2021/11/25 10:27:25;;;;;;;41.13;23.25;;;4.00;99.90;;;2.38;100.00;100808.13;2568116;30;138299;-38
2021/11/25 10:30:17;;;;;;;40.38;22.00;;;4.00;99.90;;;2.49;100.00;100793.53;2569571;30;139075;-38
2021/11/25 10:32:59;;;;;;;40.63;22.25;;;4.20;99.90;;;2.62;100.00;100799.31;2569903;30;136981;-39
2021/11/25 10:38:24;;;;;;;38.50;23.52;;;4.30;99.90;;;2.86;100.00;100793.22;2566901;30;137332;-38
2021/11/25 10:40:52;;;;;;;38.55;21.65;;;4.40;99.90;;;2.92;100.00;100797.13;2567960;30;139187;-39
2021/11/25 10:43:29;;;;;;;36.22;21.90;;;4.50;99.90;;;2.98;100.00;100806.38;2571034;30;137906;-39
2021/11/25 10:45:57;;;;;;;36.10;21.70;;;4.60;99.90;;;3.00;100.00;100810.63;2567839;30;137188;-38
2021/11/25 10:48:38;;;;;;;37.13;21.23;;;4.60;99.90;;;3.04;100.00;100812.97;2568880;30;138176;-39
2021/11/25 10:51:32;;;;;;;34.95;21.17;;;4.60;99.90;;;3.09;100.00;100799.84;2569277;30;138087;-39
2021/11/25 10:54:09;;;;;;;32.35;19.27;;;4.70;99.90;;;3.15;100.00;100793.78;2567646;30;136863;-38
2021/11/25 10:56:51;;;;;;;37.40;20.52;;;4.70;99.90;;;3.23;100.00;100791.13;2567182;30;137682;-38